createdAt,value
2018-07-09T06:11:48.527Z,579.38
2018-07-09T06:12:48.497Z,573.75
2018-07-09T06:13:48.486Z,646.88
2018-07-09T06:14:48.484Z,618.75
2018-07-09T06:15:48.501Z,556.88
2018-07-09T06:16:48.468Z,545.62
2018-07-09T06:17:48.435Z,613.12
2018-07-09T06:18:48.434Z,669.38
2018-07-09T06:19:48.455Z,697.50
2018-07-09T06:20:48.413Z,720.00
2018-07-09T06:21:48.389Z,748.12
2018-07-09T06:22:48.378Z,815.62
2018-07-09T06:23:48.369Z,900.00
2018-07-09T06:24:48.375Z,916.88
2018-07-09T06:25:48.345Z,815.62
2018-07-09T06:26:48.334Z,922.50
2018-07-09T06:27:48.324Z,967.50
2018-07-09T06:28:48.325Z,1080.00
2018-07-09T06:29:48.311Z,1406.25
2018-07-09T06:30:48.287Z,1918.12
2018-07-09T06:31:48.275Z,1771.88
2018-07-09T06:32:48.268Z,2216.25
2018-07-09T06:33:48.253Z,2458.12
2018-07-09T06:34:48.257Z,2514.38
2018-07-09T06:35:48.237Z,1546.88
2018-07-09T06:36:48.223Z,1749.38
2018-07-09T06:37:48.218Z,2092.50
2018-07-09T06:38:48.204Z,2188.12
2018-07-09T06:39:48.202Z,2188.12
2018-07-09T06:40:48.199Z,2795.62
2018-07-09T06:41:48.164Z,2953.12
2018-07-09T06:42:48.157Z,2992.50
2018-07-09T06:43:48.144Z,2840.62
2018-07-09T06:44:48.188Z,2902.50
2018-07-09T06:45:48.126Z,2885.62
2018-07-09T06:46:48.117Z,2711.25
2018-07-09T06:47:48.102Z,1980.00
2018-07-09T06:48:48.095Z,1721.25
2018-07-09T06:49:48.089Z,1186.88
2018-07-09T06:50:48.070Z,1327.50
2018-07-09T06:51:48.063Z,1271.25
2018-07-09T06:52:48.045Z,2441.25
2018-07-09T06:53:48.037Z,2514.38
2018-07-09T06:54:48.040Z,2407.50
2018-07-09T06:55:48.014Z,1518.75
2018-07-09T06:56:48.000Z,1226.25
2018-07-09T06:57:47.998Z,1175.62
2018-07-09T06:58:47.985Z,1046.25
2018-07-09T06:59:47.977Z,1096.88
2018-07-09T07:00:47.962Z,1231.88
2018-07-09T07:01:47.950Z,1265.62
2018-07-09T07:02:47.938Z,1305.00
2018-07-09T07:03:47.924Z,1293.75
2018-07-09T07:04:47.929Z,1108.12
2018-07-09T07:05:47.902Z,1260.00
2018-07-09T07:06:47.892Z,1293.75
2018-07-09T07:07:47.897Z,1265.62
2018-07-09T07:08:48.012Z,1276.88
2018-07-09T07:09:47.874Z,1288.12
2018-07-09T07:10:47.859Z,1411.88
2018-07-09T07:11:47.837Z,1479.38
2018-07-09T07:12:47.826Z,1535.62
2018-07-09T07:13:47.824Z,1873.12
2018-07-09T07:14:47.819Z,2019.38
2018-07-09T07:15:47.796Z,1625.62
2018-07-09T07:16:47.786Z,1479.38
2018-07-09T07:17:47.782Z,1434.38
2018-07-09T07:18:47.767Z,1535.62
2018-07-09T07:19:47.763Z,1620.00
2018-07-09T07:20:47.738Z,1344.38
2018-07-09T07:21:47.727Z,1456.88
2018-07-09T07:22:47.718Z,1226.25
2018-07-09T07:23:47.706Z,1923.75
2018-07-09T07:24:47.709Z,2317.50
2018-07-09T07:25:47.689Z,2317.50
2018-07-09T07:26:47.705Z,2188.12
2018-07-09T07:27:47.666Z,2446.88
2018-07-09T07:28:47.660Z,1833.75
2018-07-09T07:29:47.656Z,1530.00
2018-07-09T07:30:47.663Z,1575.00
2018-07-09T07:31:47.619Z,2103.75
2018-07-09T07:32:47.667Z,2643.75
2018-07-09T07:33:47.600Z,3071.25
2018-07-09T07:34:47.601Z,3808.12
2018-07-09T07:35:47.585Z,3650.62
2018-07-09T07:36:47.571Z,2536.88
2018-07-09T07:37:47.553Z,2655.00
2018-07-09T07:38:47.543Z,2902.50
2018-07-09T07:39:47.564Z,3307.50
2018-07-09T07:40:47.523Z,4083.75
2018-07-09T07:41:47.515Z,3892.50
2018-07-09T07:42:47.499Z,4584.38
2018-07-09T07:43:47.491Z,4297.50
2018-07-09T07:44:47.551Z,3712.50
2018-07-09T07:45:47.469Z,3408.75
2018-07-09T07:46:47.455Z,3076.88
2018-07-09T07:47:47.451Z,2790.00
2018-07-09T07:48:47.434Z,2221.88
2018-07-09T07:49:47.487Z,2351.25
2018-07-09T07:50:47.412Z,2981.25
2018-07-09T07:51:47.402Z,2773.12
2018-07-09T07:52:47.395Z,2565.00
2018-07-09T07:53:47.381Z,3031.88
2018-07-09T07:54:47.372Z,3076.88
2018-07-09T07:55:47.430Z,2806.88
2018-07-09T07:56:47.346Z,3532.50
2018-07-09T07:57:47.335Z,4151.25
2018-07-09T07:58:47.325Z,3706.88
2018-07-09T07:59:47.318Z,4185.00
2018-07-09T08:00:47.314Z,4460.62
2018-07-09T08:01:47.292Z,4376.25
2018-07-09T08:02:47.286Z,4348.12
2018-07-09T08:03:47.273Z,4736.25
2018-07-09T08:04:47.259Z,4978.12
2018-07-09T08:05:47.273Z,4899.38
2018-07-09T08:06:47.237Z,5355.00
2018-07-09T08:07:47.228Z,5388.75
2018-07-09T08:08:47.219Z,5394.38
2018-07-09T08:09:47.216Z,1906.88
2018-07-09T08:10:47.209Z,5259.38
2018-07-09T08:11:49.003Z,5253.75
2018-07-09T08:13:27.172Z,5411.25
2018-07-09T08:13:48.247Z,2193.75
2018-07-09T08:14:47.195Z,5636.25
2018-07-09T08:15:47.231Z,1321.88
2018-07-09T08:16:47.129Z,3594.38
2018-07-09T08:17:47.118Z,1119.38
2018-07-09T08:18:47.109Z,1276.88
2018-07-09T08:19:47.104Z,1310.62
2018-07-09T08:20:47.100Z,1243.12
2018-07-09T08:21:47.117Z,956.25
2018-07-09T08:22:47.066Z,945.00
2018-07-09T08:23:47.056Z,973.12
2018-07-09T08:24:47.148Z,939.38
2018-07-09T08:25:47.046Z,3892.50
2018-07-09T08:26:47.025Z,4584.38
2018-07-09T08:27:47.012Z,5163.75
2018-07-09T08:28:47.004Z,5028.75
2018-07-09T08:29:46.989Z,5653.12
2018-07-09T08:30:47.219Z,1563.75
2018-07-09T08:31:46.990Z,2064.38
2018-07-09T08:32:46.968Z,5304.38
2018-07-09T08:33:46.948Z,5366.25
2018-07-09T08:34:46.936Z,5445.00
2018-07-09T08:35:46.941Z,5383.12
2018-07-09T08:36:46.914Z,5433.75
2018-07-09T08:37:46.903Z,5461.88
2018-07-09T08:38:46.891Z,5523.75
2018-07-09T08:39:46.885Z,5326.88
2018-07-09T08:40:46.883Z,5467.50
2018-07-09T08:41:46.862Z,4826.25
2018-07-09T08:42:46.848Z,5692.50
2018-07-09T08:43:46.837Z,5529.38
2018-07-09T08:44:46.829Z,5400.00
2018-07-09T08:45:46.827Z,5253.75
2018-07-09T08:46:46.803Z,5501.25
2018-07-09T08:47:46.794Z,5821.88
2018-07-09T08:48:46.788Z,5613.75
2018-07-09T08:49:46.777Z,4978.12
2018-07-09T08:50:46.772Z,3718.12
2018-07-09T08:51:46.757Z,6007.50
2018-07-09T08:52:46.743Z,5956.88
2018-07-09T08:53:46.747Z,6148.12
2018-07-09T08:54:46.721Z,5040.00
2018-07-09T08:55:46.732Z,4758.75
2018-07-09T08:56:46.700Z,4758.75
2018-07-09T08:57:46.692Z,3335.62
2018-07-09T08:58:46.682Z,2503.12
2018-07-09T08:59:46.665Z,3678.75
2018-07-09T09:00:46.670Z,4708.12
2018-07-09T09:01:46.656Z,4218.75
2018-07-09T09:02:46.659Z,4640.62
2018-07-09T09:03:46.677Z,5028.75
2018-07-09T09:04:46.613Z,5101.88
2018-07-09T09:05:46.602Z,5484.38
2018-07-09T09:06:46.609Z,6384.38
2018-07-09T09:07:46.580Z,5743.12
2018-07-09T09:08:46.570Z,6671.25
2018-07-09T09:09:46.561Z,6468.75
2018-07-09T09:10:46.550Z,6823.12
2018-07-09T09:11:46.550Z,6255.00
2018-07-09T09:12:46.632Z,5591.25
2018-07-09T09:13:46.517Z,5574.38
2018-07-09T09:14:46.508Z,5343.75
2018-07-09T09:15:46.492Z,5085.00
2018-07-09T09:16:46.498Z,5838.75
2018-07-09T09:17:46.471Z,5715.00
2018-07-09T09:18:46.461Z,6153.75
2018-07-09T09:19:46.458Z,6260.62
2018-07-09T09:20:46.441Z,1586.25
2018-07-09T09:21:46.447Z,2829.38
2018-07-09T09:22:46.420Z,3701.25
2018-07-09T09:23:46.415Z,3735.00
2018-07-09T09:24:46.400Z,1490.62
2018-07-09T09:25:46.389Z,1732.50
2018-07-09T09:26:46.373Z,3076.88
2018-07-09T09:27:46.376Z,3903.75
2018-07-09T09:28:46.359Z,2610.00
2018-07-09T09:29:46.343Z,5546.25
2018-07-09T09:30:46.336Z,5574.38
2018-07-09T09:31:46.320Z,6541.88
2018-07-09T09:32:46.322Z,5653.12
2018-07-09T09:33:46.298Z,6406.88
2018-07-09T09:34:46.291Z,7368.75
2018-07-09T09:35:46.277Z,7666.88
2018-07-09T09:36:46.273Z,7841.25
2018-07-09T09:37:46.266Z,7976.25
2018-07-09T09:38:46.245Z,8038.12
2018-07-09T09:39:46.237Z,7756.88
2018-07-09T09:40:46.222Z,6339.38
2018-07-09T09:41:46.213Z,7610.62
2018-07-09T09:42:46.212Z,7571.25
2018-07-09T09:43:46.190Z,7425.00
2018-07-09T09:44:46.179Z,7149.38
2018-07-09T09:45:46.177Z,7132.50
2018-07-09T09:46:46.163Z,7273.12
2018-07-09T09:47:46.164Z,7554.38
2018-07-09T09:48:46.150Z,7245.00
2018-07-09T09:49:46.131Z,6856.88
2018-07-09T09:50:46.119Z,6738.75
2018-07-09T09:51:46.114Z,6255.00
2018-07-09T09:52:46.097Z,5400.00
2018-07-09T09:53:46.094Z,4719.38
2018-07-09T09:54:46.072Z,4066.88
2018-07-09T09:55:46.066Z,3510.00
2018-07-09T09:56:46.052Z,2840.62
2018-07-09T09:57:46.039Z,1569.38
2018-07-09T09:58:46.042Z,1085.62
2018-07-09T09:59:46.024Z,1147.50
2018-07-09T10:00:46.012Z,1096.88
2018-07-09T10:01:45.996Z,871.88
2018-07-09T10:02:45.989Z,798.75
2018-07-09T10:03:45.993Z,765.00
2018-07-09T10:04:45.969Z,770.62
2018-07-09T10:05:45.954Z,748.12
2018-07-09T10:06:45.943Z,866.25
2018-07-09T10:07:45.931Z,967.50
2018-07-09T10:08:45.933Z,1113.75
2018-07-09T10:09:45.914Z,1254.38
2018-07-09T10:10:45.902Z,1338.75
2018-07-09T10:11:45.891Z,1524.38
2018-07-09T10:12:45.878Z,1310.62
2018-07-09T10:13:45.884Z,866.25
2018-07-09T10:14:45.857Z,838.12
2018-07-09T10:15:45.849Z,810.00
2018-07-09T10:16:45.866Z,776.25
2018-07-09T10:17:45.829Z,753.75
2018-07-09T10:18:45.812Z,714.38
2018-07-09T10:19:45.813Z,703.12
2018-07-09T10:20:45.793Z,669.38
2018-07-09T10:21:45.783Z,646.88
2018-07-09T10:22:45.795Z,624.38
2018-07-09T10:23:45.767Z,601.88
2018-07-09T10:24:45.772Z,585.00
2018-07-09T10:25:45.738Z,573.75
2018-07-09T10:26:45.738Z,568.12
2018-07-09T10:27:45.782Z,573.75
2018-07-09T10:28:45.706Z,556.88
2018-07-09T10:29:45.706Z,613.12
2018-07-09T10:30:45.685Z,742.50
2018-07-09T10:31:45.674Z,736.88
2018-07-09T10:32:45.675Z,686.25
2018-07-09T10:33:45.674Z,624.38
2018-07-09T10:34:45.655Z,579.38
2018-07-09T10:35:45.632Z,568.12
2018-07-09T10:36:45.620Z,596.25
2018-07-09T10:37:45.612Z,607.50
2018-07-09T10:38:45.605Z,545.62
2018-07-09T10:39:45.598Z,646.88
2018-07-09T10:40:45.579Z,635.62
2018-07-09T10:41:45.569Z,596.25
2018-07-09T10:42:45.555Z,658.12
2018-07-09T10:43:45.544Z,635.62
2018-07-09T10:44:45.543Z,691.88
2018-07-09T10:45:45.525Z,697.50
2018-07-09T10:46:45.514Z,596.25
2018-07-09T10:47:45.507Z,551.25
2018-07-09T10:48:45.494Z,528.75
2018-07-09T10:49:45.516Z,540.00
2018-07-09T10:50:45.471Z,562.50
2018-07-09T10:51:45.468Z,511.88
2018-07-09T10:52:45.448Z,523.12
2018-07-09T10:53:45.436Z,523.12
2018-07-09T10:54:45.426Z,540.00
2018-07-09T10:55:45.474Z,506.25
2018-07-09T10:56:45.405Z,483.75
2018-07-09T10:57:45.431Z,506.25
2018-07-09T10:58:45.383Z,511.88
2018-07-09T10:59:45.372Z,489.38
2018-07-09T11:00:45.435Z,461.25
2018-07-09T11:01:45.350Z,461.25
2018-07-09T11:02:45.339Z,466.88
2018-07-09T11:03:45.327Z,466.88
2018-07-09T11:04:45.317Z,461.25
2018-07-09T11:05:45.323Z,450.00
2018-07-09T11:06:45.296Z,438.75
2018-07-09T11:07:45.287Z,427.50
2018-07-09T11:08:45.278Z,427.50
2018-07-09T11:09:45.323Z,427.50
2018-07-09T11:10:45.267Z,427.50
2018-07-09T11:11:45.243Z,438.75
2018-07-09T11:12:45.235Z,455.62
2018-07-09T11:13:45.221Z,455.62
2018-07-09T11:14:45.220Z,466.88
2018-07-09T11:15:45.218Z,444.38
2018-07-09T11:16:45.188Z,438.75
2018-07-09T11:17:45.179Z,433.12
2018-07-09T11:18:45.172Z,444.38
2018-07-09T11:19:45.157Z,450.00
2018-07-09T11:20:45.150Z,455.62
2018-07-09T11:21:45.268Z,450.00
2018-07-09T11:22:45.124Z,433.12
2018-07-09T11:23:45.113Z,427.50
2018-07-09T11:24:45.104Z,421.88
2018-07-09T11:25:45.097Z,416.25
2018-07-09T11:26:45.091Z,410.62
2018-07-09T11:27:45.072Z,410.62
2018-07-09T11:28:45.062Z,405.00
2018-07-09T11:29:45.053Z,393.75
2018-07-09T11:30:45.043Z,393.75
2018-07-09T11:31:45.045Z,393.75
2018-07-09T11:32:45.019Z,393.75
2018-07-09T11:33:45.065Z,388.12
2018-07-09T11:34:44.994Z,382.50
2018-07-09T11:35:44.989Z,376.88
2018-07-09T11:36:44.988Z,376.88
2018-07-09T11:37:44.965Z,376.88
2018-07-09T11:38:44.953Z,376.88
2018-07-09T11:39:44.941Z,371.25
2018-07-09T11:40:44.989Z,365.62
2018-07-09T11:41:44.930Z,365.62
2018-07-09T11:42:44.908Z,360.00
2018-07-09T11:43:44.903Z,354.38
2018-07-09T11:44:44.894Z,348.75
2018-07-09T11:45:44.877Z,348.75
2018-07-09T11:46:44.877Z,348.75
2018-07-09T11:47:44.855Z,348.75
2018-07-09T11:48:44.846Z,348.75
2018-07-09T11:49:44.833Z,343.12
2018-07-09T11:50:44.822Z,343.12
2018-07-09T11:51:44.824Z,343.12
2018-07-09T11:52:44.803Z,343.12
2018-07-09T11:53:44.793Z,337.50
2018-07-09T11:54:44.782Z,337.50
2018-07-09T11:55:44.768Z,337.50
2018-07-09T11:56:44.768Z,331.88
2018-07-09T11:57:44.747Z,331.88
2018-07-09T11:58:44.829Z,331.88
2018-07-09T11:59:44.728Z,326.25
2018-07-09T12:00:44.712Z,326.25
2018-07-09T12:01:44.718Z,320.62
2018-07-09T12:02:44.710Z,320.62
2018-07-09T12:03:44.686Z,320.62
2018-07-09T12:04:44.677Z,320.62
2018-07-09T12:05:44.661Z,315.00
2018-07-09T12:06:44.664Z,315.00
2018-07-09T12:07:44.639Z,315.00
2018-07-09T12:08:44.643Z,315.00
2018-07-09T12:09:44.629Z,315.00
2018-07-09T12:10:44.607Z,315.00
2018-07-09T12:11:44.614Z,309.38
2018-07-09T12:12:44.585Z,309.38
2018-07-09T12:13:44.579Z,309.38
2018-07-09T12:14:44.602Z,309.38
2018-07-09T12:15:44.553Z,303.75
2018-07-09T12:16:44.553Z,303.75
2018-07-09T12:17:44.530Z,303.75
2018-07-09T12:18:44.520Z,303.75
2018-07-09T12:19:44.510Z,303.75
2018-07-09T12:20:44.500Z,298.12
2018-07-09T12:21:44.557Z,298.12
2018-07-09T12:22:44.477Z,298.12
2018-07-09T12:23:44.471Z,298.12
2018-07-09T12:24:44.456Z,292.50
2018-07-09T12:25:44.445Z,292.50
2018-07-09T12:26:44.452Z,292.50
2018-07-09T12:27:44.423Z,292.50
2018-07-09T12:28:44.412Z,286.88
2018-07-09T12:29:44.403Z,286.88
2018-07-09T12:30:44.416Z,286.88
2018-07-09T12:31:44.404Z,286.88
2018-07-09T12:32:44.369Z,286.88
2018-07-09T12:33:44.361Z,281.25
2018-07-09T12:34:44.347Z,281.25
2018-07-09T12:35:44.345Z,281.25
2018-07-09T12:36:44.326Z,281.25
2018-07-09T12:37:44.330Z,275.62
2018-07-09T12:38:44.321Z,275.62
2018-07-09T12:39:44.296Z,275.62
2018-07-09T12:40:44.292Z,275.62
2018-07-09T12:41:44.272Z,275.62
2018-07-09T12:42:44.275Z,275.62
2018-07-09T12:43:44.266Z,270.00
2018-07-09T12:44:44.248Z,270.00
2018-07-09T12:45:44.231Z,270.00
2018-07-09T12:46:44.218Z,270.00
2018-07-09T12:47:44.217Z,270.00
2018-07-09T12:48:44.195Z,270.00
2018-07-09T12:49:44.243Z,270.00
2018-07-09T12:50:44.180Z,270.00
2018-07-09T12:51:44.188Z,270.00
2018-07-09T12:52:44.168Z,270.00
2018-07-09T12:53:44.148Z,270.00
2018-07-09T12:54:44.135Z,264.38
2018-07-09T12:55:44.179Z,264.38
2018-07-09T12:56:44.129Z,264.38
2018-07-09T12:57:44.114Z,264.38
2018-07-09T12:58:44.094Z,258.75
2018-07-09T12:59:44.077Z,258.75
2018-07-09T13:00:44.068Z,258.75
2018-07-09T13:01:44.122Z,258.75
2018-07-09T13:02:44.060Z,258.75
2018-07-09T13:03:44.037Z,258.75
2018-07-09T13:04:44.023Z,258.75
2018-07-09T13:05:44.019Z,258.75
2018-07-09T13:06:44.002Z,258.75
2018-07-09T13:07:44.004Z,258.75
2018-07-09T13:08:43.982Z,258.75
2018-07-09T13:09:43.970Z,253.12
2018-07-09T13:10:43.961Z,247.50
2018-07-09T13:11:43.961Z,253.12
2018-07-09T13:12:43.958Z,247.50
2018-07-09T13:13:43.929Z,247.50
2018-07-09T13:14:43.919Z,247.50
2018-07-09T13:15:43.906Z,247.50
2018-07-09T13:16:43.902Z,247.50
2018-07-09T13:17:43.895Z,247.50
2018-07-09T13:18:43.877Z,247.50
2018-07-09T13:19:43.863Z,247.50
2018-07-09T13:20:43.852Z,247.50
2018-07-09T13:21:43.839Z,247.50
2018-07-09T13:22:43.843Z,247.50
2018-07-09T13:23:43.820Z,241.88
2018-07-09T13:24:43.814Z,241.88
2018-07-09T13:25:43.797Z,241.88
2018-07-09T13:26:43.787Z,241.88
2018-07-09T13:27:43.789Z,236.25
2018-07-09T13:28:43.766Z,230.62
2018-07-09T13:29:43.754Z,230.62
2018-07-09T13:30:43.784Z,230.62
2018-07-09T13:31:43.733Z,236.25
2018-07-09T13:32:43.732Z,236.25
2018-07-09T13:33:43.711Z,236.25
2018-07-09T13:34:43.700Z,236.25
2018-07-09T13:35:43.692Z,236.25
2018-07-09T13:36:43.680Z,236.25
2018-07-09T13:37:43.680Z,236.25
2018-07-09T13:38:43.658Z,236.25
2018-07-09T13:39:43.648Z,236.25
2018-07-09T13:40:43.634Z,236.25
2018-07-09T13:41:43.622Z,236.25
2018-07-09T13:42:43.627Z,236.25
2018-07-09T13:43:43.605Z,236.25
2018-07-09T13:44:43.596Z,236.25
2018-07-09T13:45:43.581Z,236.25
2018-07-09T13:46:43.570Z,236.25
2018-07-09T13:47:43.578Z,230.62
2018-07-09T13:48:43.549Z,230.62
2018-07-09T13:49:43.540Z,230.62
2018-07-09T13:50:43.529Z,230.62
2018-07-09T13:51:43.514Z,230.62
2018-07-09T13:52:43.529Z,230.62
2018-07-09T13:53:43.496Z,225.00
2018-07-09T13:54:43.484Z,225.00
2018-07-09T13:55:43.473Z,225.00
2018-07-09T13:56:43.463Z,230.62
2018-07-09T13:57:43.466Z,230.62
2018-07-09T13:58:43.439Z,230.62
2018-07-09T13:59:43.430Z,236.25
2018-07-09T14:00:43.421Z,236.25
2018-07-09T14:01:43.407Z,241.88
2018-07-09T14:02:43.416Z,241.88
2018-07-09T14:03:43.392Z,236.25
2018-07-09T14:04:43.374Z,236.25
2018-07-09T14:05:43.367Z,236.25
2018-07-09T14:06:43.354Z,230.62
2018-07-09T14:07:43.345Z,230.62
2018-07-09T14:08:43.347Z,230.62
2018-07-09T14:09:43.330Z,230.62
2018-07-09T14:10:43.313Z,225.00
2018-07-09T14:11:43.300Z,225.00
2018-07-09T14:12:43.289Z,225.00
2018-07-09T14:13:43.288Z,225.00
2018-07-09T14:14:43.269Z,219.38
2018-07-09T14:15:43.261Z,219.38
2018-07-09T14:16:43.244Z,219.38
2018-07-09T14:17:43.237Z,219.38
2018-07-09T14:18:43.237Z,219.38
2018-07-09T14:19:43.217Z,219.38
2018-07-09T14:20:43.201Z,219.38
2018-07-09T14:21:43.194Z,219.38
2018-07-09T14:22:43.183Z,219.38
2018-07-09T14:23:43.182Z,225.00
2018-07-09T14:24:43.159Z,230.62
2018-07-09T14:25:43.150Z,241.88
2018-07-09T14:26:43.139Z,258.75
2018-07-09T14:27:43.130Z,270.00
2018-07-09T14:28:43.130Z,286.88
2018-07-09T14:29:43.162Z,309.38
2018-07-09T14:30:43.097Z,320.62
2018-07-09T14:31:43.093Z,315.00
2018-07-09T14:32:43.071Z,309.38
2018-07-09T14:33:43.077Z,303.75
2018-07-09T14:34:43.051Z,298.12
2018-07-09T14:35:43.048Z,303.75
2018-07-09T14:36:43.036Z,309.38
2018-07-09T14:37:43.017Z,320.62
2018-07-09T14:38:43.029Z,331.88
2018-07-09T14:39:42.997Z,337.50
2018-07-09T14:40:42.985Z,343.12
2018-07-09T14:41:43.016Z,348.75
2018-07-09T14:42:42.971Z,360.00
2018-07-09T14:43:42.969Z,365.62
2018-07-09T14:44:42.942Z,382.50
2018-07-09T14:45:42.934Z,405.00
2018-07-09T14:46:42.924Z,433.12
2018-07-09T14:47:42.909Z,455.62
2018-07-09T14:48:42.910Z,466.88
2018-07-09T14:49:42.893Z,478.12
2018-07-09T14:50:42.877Z,483.75
2018-07-09T14:51:42.898Z,483.75
2018-07-09T14:52:42.857Z,489.38
2018-07-09T14:53:42.860Z,478.12
2018-07-09T14:54:42.837Z,466.88
2018-07-09T14:55:42.824Z,450.00
2018-07-09T14:56:42.815Z,438.75
2018-07-09T14:57:42.808Z,416.25
2018-07-09T14:58:42.837Z,399.38
2018-07-09T14:59:42.779Z,388.12
2018-07-09T15:00:42.771Z,371.25
2018-07-09T15:01:42.762Z,360.00
2018-07-09T15:02:42.755Z,354.38
2018-07-09T15:03:42.756Z,348.75
2018-07-09T15:04:42.728Z,348.75
2018-07-09T15:05:42.713Z,354.38
2018-07-09T15:06:42.708Z,360.00
2018-07-09T15:07:42.694Z,365.62
2018-07-09T15:08:42.698Z,382.50
2018-07-09T15:09:42.708Z,399.38
2018-07-09T15:10:42.675Z,416.25
2018-07-09T15:11:42.650Z,444.38
2018-07-09T15:12:42.640Z,461.25
2018-07-09T15:13:42.639Z,483.75
2018-07-09T15:14:42.617Z,506.25
2018-07-09T15:15:42.626Z,523.12
2018-07-09T15:16:42.598Z,534.38
2018-07-09T15:17:42.587Z,545.62
2018-07-09T15:18:42.588Z,540.00
2018-07-09T15:19:42.565Z,534.38
2018-07-09T15:20:42.553Z,528.75
2018-07-09T15:21:42.543Z,517.50
2018-07-09T15:22:42.535Z,511.88
2018-07-09T15:23:42.531Z,495.00
2018-07-09T15:24:42.509Z,478.12
2018-07-09T15:25:42.498Z,455.62
2018-07-09T15:26:42.516Z,444.38
2018-07-09T15:27:42.477Z,421.88
2018-07-09T15:28:42.480Z,399.38
2018-07-09T15:29:42.490Z,376.88
2018-07-09T15:30:42.443Z,360.00
2018-07-09T15:31:42.431Z,348.75
2018-07-09T15:32:42.420Z,337.50
2018-07-09T15:33:42.423Z,326.25
2018-07-09T15:34:42.401Z,326.25
2018-07-09T15:35:42.391Z,326.25
2018-07-09T15:36:42.419Z,320.62
2018-07-09T15:37:42.367Z,320.62
2018-07-09T15:38:42.441Z,326.25
2018-07-09T15:39:42.345Z,331.88
2018-07-09T15:40:42.333Z,331.88
2018-07-09T15:41:42.324Z,331.88
2018-07-09T15:42:42.331Z,337.50
2018-07-09T15:43:42.301Z,343.12
2018-07-09T15:44:42.305Z,343.12
2018-07-09T15:45:42.280Z,354.38
2018-07-09T15:46:42.267Z,354.38
2018-07-09T15:47:42.256Z,360.00
2018-07-09T15:48:42.256Z,360.00
2018-07-09T15:49:42.250Z,360.00
2018-07-09T15:50:42.225Z,354.38
2018-07-09T15:51:42.217Z,343.12
2018-07-09T15:52:42.317Z,331.88
2018-07-09T15:53:42.192Z,320.62
2018-07-09T15:54:42.192Z,315.00
2018-07-09T15:55:42.169Z,309.38
2018-07-09T15:56:42.166Z,298.12
2018-07-09T15:57:42.150Z,292.50
2018-07-09T15:58:42.216Z,292.50
2018-07-09T15:59:42.137Z,292.50
2018-07-09T16:00:42.133Z,298.12
2018-07-09T16:01:42.114Z,309.38
2018-07-09T16:02:42.096Z,320.62
2018-07-09T16:03:42.088Z,337.50
2018-07-09T16:04:42.127Z,365.62
2018-07-09T16:05:42.067Z,382.50
2018-07-09T16:06:42.053Z,399.38
2018-07-09T16:07:42.040Z,405.00
2018-07-09T16:08:42.030Z,405.00
2018-07-09T16:09:42.032Z,393.75
2018-07-09T16:10:42.012Z,382.50
2018-07-09T16:11:41.996Z,371.25
2018-07-09T16:12:42.000Z,360.00
2018-07-09T16:13:41.977Z,360.00
2018-07-09T16:14:41.977Z,360.00
2018-07-09T16:15:41.953Z,365.62
2018-07-09T16:16:41.953Z,371.25
2018-07-09T16:17:41.937Z,376.88
2018-07-09T16:18:41.952Z,382.50
2018-07-09T16:19:41.938Z,382.50
2018-07-09T16:20:41.902Z,388.12
2018-07-09T16:21:41.910Z,388.12
2018-07-09T16:22:41.885Z,382.50
2018-07-09T16:23:41.874Z,382.50
2018-07-09T16:24:41.878Z,382.50
2018-07-09T16:25:41.849Z,382.50
2018-07-09T16:26:41.842Z,371.25
2018-07-09T16:27:41.827Z,360.00
2018-07-09T16:28:41.887Z,360.00
2018-07-09T16:29:41.823Z,343.12
2018-07-09T16:30:41.796Z,343.12
2018-07-09T16:31:41.790Z,337.50
2018-07-09T16:32:41.773Z,331.88
2018-07-09T16:33:41.762Z,331.88
2018-07-09T16:34:41.778Z,326.25
2018-07-09T16:35:41.761Z,331.88
2018-07-09T16:36:41.729Z,331.88
2018-07-09T16:37:41.727Z,326.25
2018-07-09T16:38:41.702Z,320.62
2018-07-09T16:39:41.777Z,320.62
2018-07-09T16:40:41.687Z,326.25
2018-07-09T16:41:41.671Z,326.25
2018-07-09T16:42:41.660Z,326.25
2018-07-09T16:43:41.661Z,320.62
2018-07-09T16:44:41.646Z,315.00
2018-07-09T16:45:41.626Z,315.00
2018-07-09T16:46:41.723Z,315.00
2018-07-09T16:47:41.605Z,315.00
2018-07-09T16:48:41.597Z,315.00
2018-07-09T16:49:41.599Z,320.62
2018-07-09T16:50:41.573Z,320.62
2018-07-09T16:51:41.561Z,326.25
2018-07-09T16:52:41.559Z,326.25
2018-07-09T16:53:41.539Z,331.88
2018-07-09T16:54:41.611Z,337.50
2018-07-09T16:55:41.535Z,343.12
2018-07-09T16:56:41.504Z,343.12
2018-07-09T16:57:41.494Z,337.50
2018-07-09T16:58:41.482Z,331.88
2018-07-09T16:59:41.494Z,326.25
2018-07-09T17:00:41.467Z,326.25
2018-07-09T17:01:41.613Z,320.62
2018-07-09T17:02:41.440Z,309.38
2018-07-09T17:03:41.430Z,298.12
2018-07-09T17:04:41.420Z,286.88
2018-07-09T17:05:41.430Z,270.00
2018-07-09T17:06:41.552Z,258.75
2018-07-09T17:07:41.383Z,247.50
2018-07-09T17:08:41.375Z,230.62
2018-07-09T17:09:41.364Z,225.00
2018-07-09T17:10:41.364Z,213.75
2018-07-09T17:11:41.472Z,202.50
2018-07-09T17:12:41.329Z,196.88
2018-07-09T17:13:41.320Z,196.88
2018-07-09T17:14:41.309Z,191.25
2018-07-09T17:15:41.311Z,196.88
2018-07-09T17:16:41.288Z,196.88
2018-07-09T17:17:41.278Z,196.88
2018-07-09T17:18:41.264Z,202.50
2018-07-09T17:19:41.254Z,202.50
2018-07-09T17:20:41.254Z,208.12
2018-07-09T17:21:41.231Z,208.12
2018-07-09T17:22:41.223Z,213.75
2018-07-09T17:23:41.217Z,208.12
2018-07-09T17:24:41.201Z,208.12
2018-07-09T17:25:41.200Z,213.75
2018-07-09T17:26:41.290Z,225.00
2018-07-09T17:27:41.167Z,236.25
2018-07-09T17:28:41.158Z,241.88
2018-07-09T17:29:41.145Z,241.88
2018-07-09T17:30:41.145Z,241.88
2018-07-09T17:31:41.129Z,236.25
2018-07-09T17:32:41.148Z,230.62
2018-07-09T17:33:41.100Z,230.62
2018-07-09T17:34:41.091Z,208.12
2018-07-09T17:35:41.090Z,219.38
2018-07-09T17:36:41.071Z,208.12
2018-07-09T17:37:41.074Z,202.50
2018-07-09T17:38:41.094Z,196.88
2018-07-09T17:39:41.034Z,191.25
2018-07-09T17:40:41.039Z,185.62
2018-07-09T17:41:41.013Z,180.00
2018-07-09T17:42:41.004Z,174.38
2018-07-09T17:43:41.077Z,168.75
2018-07-09T17:44:40.980Z,163.12
2018-07-09T17:45:40.983Z,157.50
2018-07-09T17:46:40.969Z,157.50
2018-07-09T17:47:40.950Z,151.88
2018-07-09T17:48:40.940Z,151.88
2018-07-09T17:49:40.928Z,146.25
2018-07-09T17:50:40.925Z,146.25
2018-07-09T17:51:40.905Z,140.62
2018-07-09T17:52:40.894Z,135.00
2018-07-09T17:53:40.881Z,135.00
2018-07-09T17:54:40.872Z,129.38
2018-07-09T17:55:40.871Z,129.38
2018-07-09T17:56:40.854Z,129.38
2018-07-09T17:57:40.840Z,123.75
2018-07-09T17:58:40.827Z,118.12
2018-07-09T17:59:40.827Z,118.12
2018-07-09T18:00:40.838Z,112.50
2018-07-09T18:01:40.798Z,106.88
2018-07-09T18:02:40.865Z,95.62
2018-07-09T18:03:40.775Z,90.00
2018-07-09T18:04:40.764Z,90.00
2018-07-09T18:05:40.765Z,90.00
2018-07-09T18:06:40.743Z,90.00
2018-07-09T18:07:40.728Z,90.00
2018-07-09T18:08:40.725Z,84.38
2018-07-09T18:09:40.708Z,84.38
2018-07-09T18:10:40.764Z,84.38
2018-07-09T18:11:40.685Z,84.38
2018-07-09T18:12:40.676Z,90.00
2018-07-09T18:13:40.720Z,95.62
2018-07-09T18:14:40.652Z,95.62
2018-07-09T18:15:40.681Z,95.62
2018-07-09T18:16:40.629Z,95.62
2018-07-09T18:17:40.644Z,95.62
2018-07-09T18:18:40.610Z,95.62
2018-07-09T18:19:40.696Z,95.62
2018-07-09T18:20:40.597Z,95.62
2018-07-09T18:21:40.577Z,90.00
2018-07-09T18:22:40.570Z,84.38
2018-07-09T18:23:40.553Z,78.75
2018-07-09T18:24:40.543Z,78.75
2018-07-09T18:25:40.547Z,78.75
2018-07-09T18:26:40.519Z,78.75
2018-07-09T18:27:40.512Z,78.75
2018-07-09T18:28:40.564Z,73.12
2018-07-09T18:29:40.493Z,73.12
2018-07-09T18:30:40.497Z,73.12
2018-07-09T18:31:40.473Z,73.12
2018-07-09T18:32:40.557Z,67.50
2018-07-09T18:33:40.448Z,67.50